Time;durP1;ratioP1;P1;durP2;ratioP2;P2;SDS_P1;SDS_P2;PMS_P1;PMS_P2;Temp;Humidity;BMP_temperature;BMP_pressure;BME280_temperature;BME280_humidity;BME280_pressure;Samples;Min_cycle;Max_cycle;Signal;HPM_P1;HPM_P2
2022/04/16 00:01:43;;;;;;;6.93;3.23;;;;;;;4.73;87.28;101698.25;1722653;82;21464;-85
2022/04/16 00:04:10;;;;;;;8.20;4.00;;;;;;;4.69;87.30;101700.41;1718439;82;21115;-75
2022/04/16 00:06:38;;;;;;;6.83;3.67;;;;;;;4.67;87.33;101700.38;1739520;80;20997;-75
2022/04/16 00:09:05;;;;;;;5.77;3.03;;;;;;;4.69;87.44;101697.81;1730861;81;21096;-86
2022/04/16 00:11:33;;;;;;;7.67;3.20;;;;;;;4.67;87.27;101708.61;1701568;83;21107;-76
2022/04/16 00:14:00;;;;;;;6.07;3.00;;;;;;;4.64;87.16;101701.66;1699256;81;21091;-75
2022/04/16 00:16:27;;;;;;;6.17;2.50;;;;;;;4.62;87.06;101710.28;1736403;82;21087;-80
2022/04/16 00:18:56;;;;;;;5.37;2.93;;;;;;;4.60;86.99;101718.08;1740634;81;21064;-83
2022/04/16 00:21:23;;;;;;;7.17;2.77;;;;;;;4.54;86.75;101714.11;1705824;83;21113;-76
2022/04/16 00:23:51;;;;;;;4.03;2.40;;;;;;;4.52;86.76;101710.66;1707944;82;21032;-75
2022/04/16 00:26:25;;;;;;;4.80;2.37;;;;;;;4.52;86.70;101711.95;1714488;80;21013;-75
2022/04/16 00:28:50;;;;;;;5.00;2.40;;;;;;;4.49;86.72;101717.12;1737647;81;21146;-75
2022/04/16 00:31:18;;;;;;;4.77;2.40;;;;;;;4.49;86.76;101721.02;1724853;82;20992;-76
2022/04/16 00:33:46;;;;;;;4.40;2.00;;;;;;;4.47;86.56;101725.31;1737173;82;21111;-74
2022/04/16 00:36:14;;;;;;;5.37;2.40;;;;;;;4.45;86.47;101721.83;1718377;82;21002;-74
2022/04/16 00:38:43;;;;;;;4.73;2.33;;;;;;;4.46;86.65;101726.15;1737167;82;21182;-74
2022/04/16 00:41:12;;;;;;;3.33;2.07;;;;;;;4.43;86.49;101724.42;1725424;81;21110;-74
2022/04/16 00:43:39;;;;;;;4.00;2.00;;;;;;;4.43;86.56;101723.53;1729451;80;21520;-75
2022/04/16 00:46:06;;;;;;;4.07;2.20;;;;;;;4.44;86.51;101720.96;1725237;80;21028;-74
2022/04/16 00:48:34;;;;;;;4.50;2.07;;;;;;;4.46;86.58;101719.66;1724772;82;21178;-75
2022/04/16 00:51:02;;;;;;;3.20;2.23;;;;;;;4.44;86.40;101725.29;1720795;81;21591;-75
2022/04/16 00:53:30;;;;;;;3.73;2.10;;;;;;;4.41;86.24;101730.45;1739377;81;21942;-75
2022/04/16 00:56:00;;;;;;;3.80;1.93;;;;;;;4.40;86.36;101733.89;1746361;81;21064;-74
2022/04/16 00:58:27;;;;;;;4.83;2.35;;;;;;;4.42;86.43;101736.94;1743895;80;20978;-83
2022/04/16 01:00:54;;;;;;;5.27;2.00;;;;;;;4.40;86.16;101740.38;1733798;81;21054;-75
2022/04/16 01:03:21;;;;;;;5.33;2.00;;;;;;;4.38;86.17;101740.38;1728957;81;20996;-78
2022/04/16 01:05:48;;;;;;;3.57;2.00;;;;;;;4.37;86.21;101738.62;1736974;82;21099;-75
2022/04/16 01:08:19;;;;;;;2.90;1.90;;;;;;;4.38;86.22;101748.16;1741336;82;21012;-75
2022/04/16 01:10:45;;;;;;;;;;;;;;;4.38;86.16;101749.87;1737282;82;21031;-83
2022/04/16 01:13:12;;;;;;;4.23;2.07;;;;;;;4.36;85.95;101750.30;1733227;82;20198;-74
2022/04/16 01:15:39;;;;;;;3.40;2.03;;;;;;;4.36;86.00;101751.16;1736901;81;21285;-75
2022/04/16 01:18:08;;;;;;;6.60;2.03;;;;;;;4.37;86.04;101750.30;1748316;80;21173;-74
2022/04/16 01:20:41;;;;;;;4.70;1.73;;;;;;;4.38;85.93;101747.27;1735425;81;21516;-74
2022/04/16 01:23:08;;;;;;;3.27;1.50;;;;;;;4.38;85.77;101755.05;1736684;82;21103;-74
2022/04/16 01:25:36;;;;;;;3.60;1.60;;;;;;;4.38;85.73;101764.14;1722375;82;21077;-84
2022/04/16 01:28:04;;;;;;;4.00;1.50;;;;;;;4.35;85.66;101771.50;1723015;81;21076;-74
2022/04/16 01:30:33;;;;;;;2.90;1.70;;;;;;;4.33;85.50;101774.50;1724875;81;21105;-74
2022/04/16 01:33:01;;;;;;;5.60;2.00;;;;;;;4.32;85.52;101778.36;1729515;81;22067;-79
2022/04/16 01:35:29;;;;;;;5.40;2.20;;;;;;;4.32;85.45;101783.55;1743628;81;21082;-79
2022/04/16 01:37:56;;;;;;;4.47;1.70;;;;;;;4.31;85.36;101789.17;1722899;82;21039;-83
2022/04/16 01:40:25;;;;;;;3.63;1.73;;;;;;;4.32;85.45;101786.15;1690824;83;21009;-73
2022/04/16 01:42:56;;;;;;;4.13;1.97;;;;;;;4.33;85.37;101785.31;1709891;82;21075;-74
2022/04/16 01:45:23;;;;;;;3.80;1.62;;;;;;;4.33;85.15;101787.48;1725973;81;21052;-74
2022/04/16 01:47:51;;;;;;;3.83;2.27;;;;;;;4.33;85.17;101788.77;1722307;81;21099;-80
2022/04/16 01:50:19;;;;;;;4.77;1.47;;;;;;;4.32;85.03;101791.34;1725645;82;21561;-73
2022/04/16 01:52:47;;;;;;;2.67;1.83;;;;;;;4.31;84.90;101794.80;1730029;82;21014;-82
2022/04/16 01:55:15;;;;;;;4.33;1.60;;;;;;;4.30;84.71;101791.77;1727421;82;21127;-75
2022/04/16 01:57:42;;;;;;;3.90;1.70;;;;;;;4.29;84.54;101792.61;1724323;82;20941;-74
2022/04/16 02:00:14;;;;;;;4.97;1.60;;;;;;;4.29;84.41;101800.39;1724470;82;21043;-78
2022/04/16 02:02:41;;;;;;;5.13;1.60;;;;;;;4.30;84.36;101802.16;1700775;82;21061;-74
2022/04/16 02:05:10;;;;;;;2.93;1.80;;;;;;;4.28;84.11;101800.83;1727840;82;21073;-73
2022/04/16 02:07:38;;;;;;;3.13;1.87;;;;;;;4.28;84.08;101802.56;1724190;81;21187;-82
2022/04/16 02:10:07;;;;;;;3.23;1.50;;;;;;;4.27;83.86;101813.77;1746778;80;21880;-80
2022/04/16 02:12:37;;;;;;;6.63;2.23;;;;;;;4.25;83.79;101810.75;1733369;80;21544;-77
2022/04/16 02:15:06;;;;;;;2.83;1.57;;;;;;;4.25;83.78;101809.45;1753147;81;21023;-72
2022/04/16 02:17:34;;;;;;;3.43;1.50;;;;;;;4.24;83.55;101814.64;1730862;81;20986;-78
2022/04/16 02:20:01;;;;;;;3.27;1.80;;;;;;;4.23;83.64;101811.14;1727654;82;21077;-72
2022/04/16 02:22:44;;;;;;;4.03;1.87;;;;;;;4.23;83.52;101812.44;1746931;81;21025;-72
2022/04/16 02:25:13;;;;;;;3.97;1.97;;;;;;;4.23;83.69;101812.44;1733717;81;21486;-72
2022/04/16 02:27:41;;;;;;;5.43;1.40;;;;;;;4.23;83.62;101815.47;1755543;80;21075;-73
2022/04/16 02:30:14;;;;;;;3.60;1.90;;;;;;;4.22;83.54;101817.20;1742606;81;21076;-73
2022/04/16 02:32:45;;;;;;;4.10;1.40;;;;;;;4.23;83.50;101827.15;1707174;82;21150;-72
2022/04/16 02:35:14;;;;;;;;;;;;;;;4.21;83.26;101832.74;1731922;81;21600;-72
2022/04/16 02:37:41;;;;;;;4.07;1.50;;;;;;;4.18;83.18;101828.38;1724248;82;20196;-72
2022/04/16 02:40:10;;;;;;;2.57;1.50;;;;;;;4.16;83.10;101835.30;1742508;81;21133;-78
2022/04/16 02:42:40;;;;;;;2.80;1.50;;;;;;;4.14;82.76;101838.73;1746834;81;21016;-73
2022/04/16 02:47:58;;;;;;;5.17;1.90;;;;;;;4.07;82.64;101835.16;1712458;82;20988;-72
2022/04/16 02:50:28;;;;;;;3.73;1.80;;;;;;;4.03;82.28;101838.59;1733698;81;21066;-72
2022/04/16 02:52:58;;;;;;;3.55;1.60;;;;;;;3.99;82.29;101841.97;1731936;82;21506;-72
2022/04/16 02:55:26;;;;;;;3.10;1.45;;;;;;;3.96;82.24;101852.31;1730620;82;21166;-73
2022/04/16 02:57:53;;;;;;;2.40;1.30;;;;;;;3.92;81.89;101852.71;1732395;81;21880;-79
2022/04/16 03:00:21;;;;;;;3.60;1.90;;;;;;;3.88;81.93;101848.34;1732301;81;21528;-72
2022/04/16 03:02:54;;;;;;;4.23;1.70;;;;;;;3.84;81.89;101849.57;1742771;81;21069;-72
2022/04/16 03:05:18;;;;;;;4.15;1.75;;;;;;;3.84;81.84;101857.35;1740031;80;28539;-74
2022/04/16 03:07:45;;;;;;;2.90;1.40;;;;;;;3.80;81.72;101859.91;1748165;81;21604;-74
2022/04/16 03:10:13;;;;;;;5.33;1.77;;;;;;;3.78;81.79;101865.48;1733030;80;21023;-72
2022/04/16 03:12:53;;;;;;;3.97;1.43;;;;;;;3.78;81.82;101862.89;1740431;80;21087;-72
2022/04/16 03:18:08;;;;;;;3.30;1.57;;;;;;;3.74;81.65;101866.31;1724227;81;21048;-73
2022/04/16 03:20:37;;;;;;;4.50;1.63;;;;;;;3.73;81.67;101863.67;1722170;81;21060;-73
2022/04/16 03:23:05;;;;;;;3.40;1.43;;;;;;;3.70;81.62;101866.23;1731702;82;21134;-72
2022/04/16 03:25:32;;;;;;;3.80;1.37;;;;;;;3.67;81.49;101869.64;1706999;82;21044;-72
2022/04/16 03:27:59;;;;;;;3.83;1.40;;;;;;;3.66;81.35;101874.80;1720822;81;21534;-72
2022/04/16 03:30:26;;;;;;;4.43;1.60;;;;;;;3.60;81.24;101876.88;1733639;80;21052;-72
2022/04/16 03:32:53;;;;;;;4.40;1.57;;;;;;;3.56;81.15;101879.85;1721637;82;21462;-72
2022/04/16 03:35:23;;;;;;;4.20;1.80;;;;;;;3.52;81.31;101879.38;1739180;81;21133;-72
2022/04/16 03:37:51;;;;;;;5.40;1.92;;;;;;;3.49;81.18;101887.10;1736654;82;21574;-72
2022/04/16 03:40:19;;;;;;;3.00;1.50;;;;;;;3.48;81.33;101893.11;1741122;81;21482;-73
2022/04/16 03:42:54;;;;;;;2.57;1.53;;;;;;;3.47;81.32;101887.49;1722859;82;21438;-72
2022/04/16 03:45:24;;;;;;;4.63;1.83;;;;;;;3.47;81.24;101890.52;1732188;81;21016;-77
2022/04/16 03:47:53;;;;;;;3.60;1.62;;;;;;;3.45;81.25;101902.14;1720542;82;21086;-72
2022/04/16 03:50:21;;;;;;;3.43;1.60;;;;;;;3.43;81.32;101899.94;1693690;83;21024;-72
2022/04/16 03:52:50;;;;;;;3.80;1.80;;;;;;;3.42;81.22;101898.64;1699309;83;21026;-72
2022/04/16 04:00:58;;;;;;;4.00;1.60;;;;;;;3.35;81.08;101893.36;1725009;82;21071;-74
2022/04/16 04:03:25;;;;;;;4.87;1.40;;;;;;;3.33;81.26;101891.16;1712951;81;21052;-73
2022/04/16 04:05:54;;;;;;;2.97;1.73;;;;;;;3.30;81.17;101885.92;1713257;81;21022;-81
2022/04/16 04:08:22;;;;;;;5.40;2.23;;;;;;;3.28;81.15;101890.20;1715547;82;21071;-79
2022/04/16 04:10:49;;;;;;;2.67;1.77;;;;;;;3.26;81.13;101893.19;1733561;81;21014;-80
2022/04/16 04:13:17;;;;;;;4.37;1.90;;;;;;;3.25;81.11;101891.45;1719366;81;21117;-72
2022/04/16 04:15:46;;;;;;;2.40;1.60;;;;;;;3.20;81.01;101889.62;1722487;82;21041;-81
2022/04/16 04:18:13;;;;;;;4.47;2.07;;;;;;;3.17;80.99;101887.85;1739530;81;21083;-79
2022/04/16 04:20:40;;;;;;;7.13;2.60;;;;;;;3.15;81.04;101895.15;1742223;81;21031;-72
2022/04/16 04:23:07;;;;;;;4.77;2.33;;;;;;;3.15;81.18;101893.85;1745245;80;21005;-79
2022/04/16 04:25:34;;;;;;;4.93;2.63;;;;;;;3.13;81.10;101898.59;1726483;82;21145;-80
2022/04/16 04:28:01;;;;;;;8.50;3.20;;;;;;;3.11;81.14;101893.80;1722014;82;21033;-75
2022/04/16 04:30:30;;;;;;;7.17;3.40;;;;;;;3.12;81.23;101902.44;1735561;81;21074;-75
2022/04/16 04:32:58;;;;;;;9.63;4.47;;;;;;;3.12;81.20;101903.73;1736561;82;21414;-78
2022/04/16 04:35:26;;;;;;;11.03;4.00;;;;;;;3.11;81.14;101903.30;1717756;81;21904;-72
2022/04/16 04:37:54;;;;;;;11.83;4.70;;;;;;;3.11;81.09;101908.48;1727355;81;21029;-80
2022/04/16 04:40:22;;;;;;;10.80;3.93;;;;;;;3.11;81.14;101914.95;1715451;82;21080;-81
2022/04/16 04:42:48;;;;;;;14.50;5.87;;;;;;;3.10;81.00;101919.67;1719144;81;21016;-73
2022/04/16 04:45:17;;;;;;;16.77;6.50;;;;;;;3.11;81.13;101917.13;1733278;81;21055;-74
2022/04/16 04:47:44;;;;;;;16.73;7.03;;;;;;;3.12;81.13;101921.87;1743739;81;21538;-81
2022/04/16 04:50:12;;;;;;;14.03;5.43;;;;;;;3.13;81.22;101928.39;1732600;81;21228;-82
2022/04/16 04:52:42;;;;;;;10.73;4.67;;;;;;;3.16;81.18;101939.63;1736396;80;21000;-77
2022/04/16 04:55:13;;;;;;;5.70;2.57;;;;;;;3.17;81.10;101943.98;1736143;82;21529;-78
2022/04/16 04:57:42;;;;;;;11.60;4.57;;;;;;;3.17;81.13;101942.69;1738298;82;21043;-81
2022/04/16 05:00:11;;;;;;;8.97;3.73;;;;;;;3.17;81.02;101943.56;1737233;82;21601;-81
2022/04/16 05:02:51;;;;;;;6.40;3.10;;;;;;;3.20;81.03;101946.63;1720624;81;22056;-78
2022/04/16 05:05:17;;;;;;;8.10;3.90;;;;;;;3.19;81.01;101953.54;1724884;82;21145;-80
2022/04/16 05:07:43;;;;;;;7.97;3.67;;;;;;;3.19;80.91;101953.54;1731141;80;21000;-81
2022/04/16 05:10:11;;;;;;;9.10;4.83;;;;;;;3.20;80.93;101957.00;1741709;81;21014;-73
2022/04/16 05:12:38;;;;;;;7.83;4.07;;;;;;;3.22;81.00;101965.68;1752234;80;21427;-75
2022/04/16 05:15:07;;;;;;;6.07;3.00;;;;;;;3.25;80.99;101967.03;1730260;81;21132;-74
2022/04/16 05:17:37;;;;;;;8.97;3.97;;;;;;;3.28;81.12;101970.54;1735313;80;20951;-73
2022/04/16 05:20:04;;;;;;;7.20;3.63;;;;;;;3.32;81.11;101977.50;1745835;82;21527;-74
2022/04/16 05:22:31;;;;;;;11.37;7.53;;;;;;;3.37;81.01;101981.91;1741584;81;21511;-73
2022/04/16 05:24:58;;;;;;;3.37;2.27;;;;;;;3.41;81.06;101984.60;1741194;82;20971;-73
2022/04/16 05:27:25;;;;;;;7.07;2.70;;;;;;;3.45;81.04;101993.30;1735909;81;21478;-76
2022/04/16 05:30:11;;;;;;;6.10;3.67;;;;;;;3.49;80.95;101992.48;1729596;82;21134;-79
2022/04/16 05:32:38;;;;;;;5.30;2.83;;;;;;;3.53;80.96;101999.06;1726861;81;21727;-79
2022/04/16 05:35:06;;;;;;;6.47;4.70;;;;;;;3.58;80.95;102001.31;1738242;82;21126;-76
2022/04/16 05:37:35;;;;;;;9.83;5.30;;;;;;;3.60;80.81;102007.80;1737935;80;21323;-73
2022/04/16 05:40:03;;;;;;;12.47;9.53;;;;;;;3.62;80.67;102012.60;1743607;80;21971;-74
2022/04/16 05:42:30;;;;;;;11.23;6.30;;;;;;;3.64;80.64;102013.94;1746753;81;21021;-72
2022/04/16 05:45:02;;;;;;;8.80;3.93;;;;;;;3.70;80.84;102013.61;1761508;80;21439;-74
2022/04/16 05:47:29;;;;;;;7.03;2.77;;;;;;;3.73;80.69;102018.84;1755029;80;20981;-79
2022/04/16 05:49:56;;;;;;;17.60;7.07;;;;;;;3.79;80.67;102020.67;1753777;80;21095;-73
2022/04/16 05:52:23;;;;;;;5.63;3.80;;;;;;;3.82;80.63;102016.83;1733403;80;21119;-80
2022/04/16 05:54:52;;;;;;;7.60;4.67;;;;;;;3.87;80.48;102016.48;1746747;80;21051;-80
2022/04/16 05:57:23;;;;;;;8.20;4.10;;;;;;;3.90;80.53;102022.15;1729683;81;21099;-77
2022/04/16 05:59:50;;;;;;;66.27;22.23;;;;;;;3.94;80.46;102022.23;1660480;84;21638;-72
2022/04/16 06:02:17;;;;;;;40.93;15.47;;;;;;;3.98;80.47;102021.42;1704257;82;21142;-73
2022/04/16 06:04:44;;;;;;;17.70;7.07;;;;;;;4.02;80.32;102024.96;1754149;81;21132;-73
2022/04/16 06:07:11;;;;;;;28.67;11.03;;;;;;;4.05;80.46;102028.90;1746118;81;21095;-75
2022/04/16 06:09:38;;;;;;;11.70;5.20;;;;;;;4.12;80.55;102021.64;1721041;82;20866;-75
2022/04/16 06:12:05;;;;;;;6.93;3.10;;;;;;;4.19;80.59;102026.52;1711576;82;21526;-75
2022/04/16 06:14:33;;;;;;;15.20;6.67;;;;;;;4.27;80.48;102024.91;1729657;82;21035;-74
2022/04/16 06:16:59;;;;;;;8.90;3.90;;;;;;;4.35;80.50;102028.89;1736805;81;21762;-79
2022/04/16 06:19:26;;;;;;;8.17;4.87;;;;;;;4.45;80.61;102030.34;1734466;80;21060;-75
2022/04/16 06:21:54;;;;;;;24.23;15.23;;;;;;;4.53;80.35;102023.11;1712976;81;21069;-80
2022/04/16 06:24:21;;;;;;;56.57;16.63;;;;;;;4.58;80.31;102029.24;1715973;82;21056;-76
2022/04/16 06:26:48;;;;;;;31.53;9.30;;;;;;;4.66;80.33;102030.22;1729998;82;20997;-76
2022/04/16 06:29:15;;;;;;;55.03;18.13;;;;;;;4.72;80.13;102032.89;1698946;83;21115;-75
2022/04/16 06:31:43;;;;;;;12.17;5.43;;;;;;;4.79;80.22;102030.80;1679167;84;21058;-77
2022/04/16 06:34:10;;;;;;;16.07;7.73;;;;;;;4.86;79.89;102041.73;1683875;84;21047;-77
2022/04/16 06:36:38;;;;;;;13.30;5.50;;;;;;;4.92;80.02;102040.94;1683345;83;21032;-74
2022/04/16 06:39:05;;;;;;;11.03;4.57;;;;;;;4.97;79.69;102036.67;1689492;82;21078;-74
2022/04/16 06:41:32;;;;;;;10.73;3.97;;;;;;;5.00;79.43;102047.10;1671346;84;21228;-76
2022/04/16 06:43:59;;;;;;;8.47;4.00;;;;;;;5.03;79.53;102050.17;1680532;84;21061;-76
2022/04/16 06:46:26;;;;;;;17.47;6.50;;;;;;;5.10;79.60;102045.50;1697846;81;21064;-76
2022/04/16 06:48:53;;;;;;;17.47;6.27;;;;;;;5.14;79.34;102048.14;1699265;81;21096;-77
2022/04/16 06:51:20;;;;;;;8.40;3.30;;;;;;;5.18;79.41;102045.56;1711963;81;21107;-75
2022/04/16 06:53:47;;;;;;;10.83;4.33;;;;;;;5.24;79.22;102051.73;1713223;82;21153;-74
2022/04/16 06:56:14;;;;;;;43.57;14.33;;;;;;;5.29;79.02;102051.77;1699581;82;22237;-77
2022/04/16 06:58:41;;;;;;;7.77;3.57;;;;;;;5.34;78.97;102051.39;1738096;80;21033;-72
2022/04/16 07:01:08;;;;;;;10.47;4.40;;;;;;;5.43;79.01;102052.81;1711579;82;21041;-75
2022/04/16 07:03:35;;;;;;;40.07;15.37;;;;;;;5.49;78.71;102046.37;1728103;81;21501;-84
2022/04/16 07:06:03;;;;;;;5.87;2.87;;;;;;;5.59;78.94;102056.42;1717332;82;21117;-77
2022/04/16 07:08:29;;;;;;;17.43;6.50;;;;;;;5.71;78.94;102050.05;1727224;80;21015;-76
2022/04/16 07:10:56;;;;;;;15.47;6.17;;;;;;;5.82;78.96;102057.96;1729027;81;21076;-76
2022/04/16 07:13:23;;;;;;;20.73;8.13;;;;;;;5.91;78.77;102046.76;1724601;81;21581;-76
2022/04/16 07:15:50;;;;;;;7.43;2.60;;;;;;;6.01;78.68;102055.09;1735882;81;21048;-78
2022/04/16 07:18:17;;;;;;;14.73;6.93;;;;;;;6.10;78.40;102054.33;1742715;80;21140;-73
2022/04/16 07:20:45;;;;;;;11.57;5.57;;;;;;;6.22;78.45;102052.67;1736845;81;21053;-80
2022/04/16 07:23:11;;;;;;;5.67;2.47;;;;;;;6.36;78.17;102061.02;1739011;80;21016;-76
2022/04/16 07:25:38;;;;;;;7.70;3.77;;;;;;;6.40;77.95;102054.55;1737220;81;21029;-76
2022/04/16 07:28:06;;;;;;;3.90;2.10;;;;;;;6.47;77.72;102061.95;1710173;81;21953;-78
2022/04/16 07:30:33;;;;;;;14.53;6.57;;;;;;;6.50;77.19;102055.46;1743195;81;22023;-81
2022/04/16 07:32:59;;;;;;;6.13;3.10;;;;;;;6.46;76.81;102071.52;1724790;81;21047;-78
2022/04/16 07:35:27;;;;;;;5.97;3.53;;;;;;;6.43;76.33;102070.63;1752799;80;21014;-74
2022/04/16 07:37:58;;;;;;;6.33;3.00;;;;;;;6.42;76.49;102068.42;1747393;80;21011;-78
2022/04/16 07:40:25;;;;;;;9.33;4.83;;;;;;;6.44;76.60;102067.15;1732346;82;21068;-78
2022/04/16 07:42:52;;;;;;;14.60;7.50;;;;;;;6.55;76.87;102073.73;1715612;80;21134;-77
2022/04/16 07:45:21;;;;;;;16.47;7.50;;;;;;;6.60;76.71;102078.55;1724183;82;21478;-78
2022/04/16 07:47:48;;;;;;;7.10;3.63;;;;;;;6.59;76.33;102069.84;1742791;80;20997;-76
2022/04/16 07:50:16;;;;;;;4.97;2.83;;;;;;;6.55;75.85;102083.72;1742178;81;21069;-86
2022/04/16 07:52:45;;;;;;;25.47;10.80;;;;;;;6.56;75.81;102083.28;1735543;82;21025;-81
2022/04/16 07:55:13;;;;;;;12.60;5.87;;;;;;;6.62;75.78;102076.80;1722028;81;22042;-78
2022/04/16 07:57:40;;;;;;;3.17;2.20;;;;;;;6.67;75.75;102082.92;1732134;81;22129;-79
2022/04/16 08:00:10;;;;;;;5.43;3.03;;;;;;;6.72;75.59;102086.87;1735820;81;21108;-80
2022/04/16 08:02:40;;;;;;;3.70;2.00;;;;;;;6.69;75.20;102079.46;1753696;81;21070;-82
2022/04/16 08:05:08;;;;;;;6.13;3.30;;;;;;;6.79;75.43;102080.81;1719557;81;21088;-79
2022/04/16 08:07:34;;;;;;;3.87;2.37;;;;;;;6.92;75.55;102087.84;1720768;80;21552;-80
2022/04/16 08:10:02;;;;;;;3.10;1.83;;;;;;;7.01;75.37;102092.22;1739020;81;21122;-80
2022/04/16 08:12:33;;;;;;;3.53;1.97;;;;;;;7.04;74.81;102088.31;1714152;81;21021;-79
2022/04/16 08:15:00;;;;;;;2.47;1.60;;;;;;;7.07;74.75;102094.44;1715805;81;21029;-79
2022/04/16 08:17:27;;;;;;;1.80;1.43;;;;;;;7.19;74.77;102096.66;1725024;81;21114;-78
2022/04/16 08:19:54;;;;;;;1.57;1.30;;;;;;;7.38;74.95;102086.73;1735310;80;21121;-80
2022/04/16 08:22:22;;;;;;;3.63;1.77;;;;;;;7.53;74.81;102090.67;1741480;81;21002;-77
2022/04/16 08:27:36;;;;;;;2.60;1.50;;;;;;;7.91;74.24;102093.80;1703775;83;21092;-80
2022/04/16 08:30:04;;;;;;;3.13;1.30;;;;;;;7.96;73.94;102097.30;1723394;82;21157;-82
2022/04/16 08:32:35;;;;;;;2.63;1.47;;;;;;;7.94;73.34;102096.41;1750335;80;21120;-82
2022/04/16 08:35:05;;;;;;;2.27;1.20;;;;;;;7.91;72.89;102108.16;1736049;81;21099;-86
2022/04/16 08:37:32;;;;;;;2.27;1.62;;;;;;;7.79;72.18;102101.63;1721365;80;21565;-80
2022/04/16 08:40:00;;;;;;;3.70;1.63;;;;;;;7.69;72.02;102107.25;1736332;80;21664;-76
2022/04/16 08:42:27;;;;;;;5.93;1.93;;;;;;;7.61;71.93;102110.27;1735934;81;21122;-75
2022/04/16 08:44:56;;;;;;;4.53;1.67;;;;;;;7.57;71.89;102108.09;1728889;81;21780;-80
2022/04/16 08:47:23;;;;;;;1.77;1.30;;;;;;;7.73;72.46;102097.67;1647273;85;21127;-84
2022/04/16 08:49:50;;;;;;;3.10;1.90;;;;;;;8.01;73.11;102099.48;1681232;83;21047;-81
2022/04/16 08:52:18;;;;;;;1.53;1.30;;;;;;;8.33;73.28;102099.91;1737886;80;21104;-76
2022/04/16 08:54:45;;;;;;;3.10;1.70;;;;;;;8.66;73.20;102100.33;1748451;81;21045;-80
2022/04/16 08:57:12;;;;;;;2.17;1.67;;;;;;;8.97;72.90;102098.08;1762406;80;21077;-75
2022/04/16 08:59:42;;;;;;;2.33;1.40;;;;;;;9.21;72.48;102094.06;1740639;81;21060;-76
2022/04/16 09:02:09;;;;;;;3.03;1.50;;;;;;;9.36;71.94;102099.66;1723046;82;21061;-74
2022/04/16 09:04:36;;;;;;;3.03;1.20;;;;;;;9.45;71.18;102100.05;1715776;82;21080;-83
2022/04/16 09:07:05;;;;;;;1.73;1.30;;;;;;;9.59;70.88;102101.73;1731804;81;21523;-74
2022/04/16 09:09:31;;;;;;;2.23;1.40;;;;;;;9.80;70.61;102107.70;1735968;81;21118;-74
2022/04/16 09:11:58;;;;;;;2.20;1.40;;;;;;;9.93;70.21;102106.75;1731156;80;21065;-74
2022/04/16 09:14:36;;;;;;;2.30;1.50;;;;;;;9.96;69.62;102103.23;1736266;81;21021;-77
2022/04/16 09:17:08;;;;;;;2.25;1.15;;;;;;;9.91;69.43;102108.94;1733548;80;21027;-75
2022/04/16 09:19:35;;;;;;;4.37;3.45;;;;;;;9.77;68.51;102108.59;1721963;81;21024;-75
2022/04/16 09:22:03;;;;;;;1.90;1.50;;;;;;;9.59;68.01;102108.27;1725611;82;21133;-78
2022/04/16 09:24:48;;;;;;;1.90;1.20;;;;;;;9.50;67.73;102108.75;1698171;82;21603;-76
2022/04/16 09:27:15;;;;;;;11.53;6.10;;;;;;;9.33;67.33;102111.45;1720223;82;21047;-78
2022/04/16 09:29:43;;;;;;;4.43;2.30;;;;;;;9.08;67.10;102110.23;1724834;82;21114;-76
2022/04/16 09:32:23;;;;;;;1.20;1.10;;;;;;;9.12;67.57;102109.37;1717031;81;21047;-75
2022/04/16 09:34:52;;;;;;;2.87;1.50;;;;;;;9.40;67.96;102104.46;1735746;80;21101;-77
2022/04/16 09:37:24;;;;;;;9.78;4.33;;;;;;;9.78;68.47;102105.52;1736984;81;21051;-77
2022/04/16 09:39:51;;;;;;;8.68;5.92;;;;;;;10.05;67.89;102109.27;1733277;81;21433;-76
2022/04/16 09:42:26;;;;;;;10.82;9.73;;;;;;;10.14;67.42;102120.14;1698433;83;21083;-73
2022/04/16 09:44:53;;;;;;;14.40;2.83;;;;;;;10.00;66.51;102116.31;1725557;81;21560;-78
2022/04/16 09:47:26;;;;;;;4.62;2.80;;;;;;;9.80;65.95;102117.73;1711820;82;22117;-81
2022/04/16 09:49:55;;;;;;;4.23;1.30;;;;;;;9.61;65.65;102127.44;1730023;80;21005;-78
2022/04/16 09:52:24;;;;;;;5.35;1.98;;;;;;;9.64;65.97;102121.31;1736683;80;21060;-80
2022/04/16 09:54:52;;;;;;;5.83;2.30;;;;;;;9.87;66.24;102120.34;1721725;81;21508;-79
2022/04/16 09:57:22;;;;;;;3.65;2.00;;;;;;;10.26;66.31;102123.09;1702466;82;21464;-80
2022/04/16 09:59:53;;;;;;;3.30;1.72;;;;;;;10.65;66.43;102122.34;1739899;81;22332;-79
2022/04/16 10:02:21;;;;;;;3.22;2.70;;;;;;;10.76;65.46;102120.48;1727807;81;21050;-78
2022/04/16 10:04:48;;;;;;;2.15;1.55;;;;;;;10.73;64.76;102119.66;1674386;84;21283;-79
2022/04/16 10:07:17;;;;;;;5.80;3.60;;;;;;;10.57;64.09;102118.48;1686163;84;20987;-80
2022/04/16 10:09:46;;;;;;;4.20;2.02;;;;;;;10.44;64.03;102122.09;1749019;80;21242;-77
2022/04/16 10:15:13;;;;;;;1.35;1.05;;;;;;;10.59;63.93;102130.27;1753129;81;21354;-78
2022/04/16 10:17:50;;;;;;;4.55;2.87;;;;;;;10.53;63.49;102129.00;1737482;82;21493;-80
2022/04/16 10:20:23;;;;;;;4.67;2.22;;;;;;;10.64;63.29;102126.73;1757893;80;21040;-80
2022/04/16 10:22:56;;;;;;;4.75;2.65;;;;;;;10.72;63.12;102126.62;1728606;81;21063;-80
2022/04/16 10:25:41;;;;;;;2.50;1.50;;;;;;;10.82;62.75;102119.55;1734460;80;21118;-80
2022/04/16 10:28:12;;;;;;;4.65;2.02;;;;;;;11.11;62.89;102132.33;1727546;82;21639;-80
2022/04/16 10:30:52;;;;;;;4.30;1.55;;;;;;;11.43;62.71;102131.08;1741571;81;21590;-80
2022/04/16 10:33:23;;;;;;;6.97;4.28;;;;;;;11.93;63.00;102127.77;1746408;80;21071;-79
2022/04/16 10:36:09;;;;;;;13.95;7.78;;;;;;;12.37;62.14;102118.77;1724175;81;21082;-79
2022/04/16 10:38:45;;;;;;;3.37;2.08;;;;;;;12.67;61.92;102126.11;1748215;81;21133;-79
2022/04/16 10:41:17;;;;;;;10.90;6.00;;;;;;;12.67;60.90;102130.05;1757172;80;21099;-79
2022/04/16 10:43:55;;;;;;;6.05;3.52;;;;;;;12.46;60.22;102124.72;1747728;81;21021;-79
2022/04/16 10:46:24;;;;;;;3.98;2.27;;;;;;;12.21;59.73;102120.31;1760724;80;21115;-78
2022/04/16 10:48:53;;;;;;;4.08;1.40;;;;;;;12.31;59.85;102123.68;1754131;80;21017;-79
2022/04/16 10:51:23;;;;;;;3.08;1.55;;;;;;;12.34;59.73;102127.57;1714070;80;22018;-79
2022/04/16 10:53:50;;;;;;;2.72;1.80;;;;;;;12.63;59.47;102126.19;1757382;80;21082;-79
2022/04/16 10:56:22;;;;;;;1.72;1.30;;;;;;;12.66;59.13;102131.39;1738482;80;21045;-80
2022/04/16 10:59:01;;;;;;;3.90;1.82;;;;;;;12.90;58.74;102123.49;1738357;81;21083;-79
2022/04/16 11:01:30;;;;;;;4.00;1.60;;;;;;;13.17;58.37;102119.45;1713085;82;21020;-79
2022/04/16 11:03:57;;;;;;;8.43;4.62;;;;;;;13.41;57.95;102123.36;1714727;81;21064;-78
2022/04/16 11:06:35;;;;;;;4.97;3.17;;;;;;;13.61;57.64;102122.95;1716482;81;21044;-82
2022/04/16 11:09:03;;;;;;;3.58;1.62;;;;;;;14.10;57.78;102120.47;1726857;81;21045;-73
2022/04/16 11:11:30;;;;;;;3.52;1.40;;;;;;;14.65;57.40;102120.42;1720818;82;21068;-79
2022/04/16 11:13:59;;;;;;;1.98;1.37;;;;;;;14.96;56.67;102126.19;1708612;82;21012;-74
2022/04/16 11:16:26;;;;;;;3.37;2.60;;;;;;;15.06;55.75;102122.84;1733287;82;21943;-75
2022/04/16 11:18:53;;;;;;;3.22;1.90;;;;;;;14.80;54.90;102127.08;1733345;82;20984;-75
2022/04/16 11:21:25;;;;;;;2.55;1.07;;;;;;;14.59;54.47;102123.69;1726370;81;21072;-79
2022/04/16 11:23:53;;;;;;;2.75;1.82;;;;;;;14.47;54.86;102126.16;1742716;81;21039;-84
2022/04/16 11:34:57;;;;;;;3.95;3.62;;;;;;;14.14;54.33;102141.92;1725354;81;21017;-82
2022/04/16 11:37:29;;;;;;;2.17;1.47;;;;;;;14.36;54.15;102147.53;1741379;82;21067;-89
2022/04/16 11:40:08;;;;;;;2.30;1.57;;;;;;;14.44;53.62;102131.06;1713687;81;21296;-88
2022/04/16 11:42:36;;;;;;;6.03;3.37;;;;;;;14.49;53.28;102133.56;1729113;82;21136;-74
2022/04/16 11:45:09;;;;;;;3.30;2.00;;;;;;;14.37;52.88;102141.34;1732529;82;21565;-77
2022/04/16 11:47:37;;;;;;;3.30;1.50;;;;;;;14.67;53.06;102126.99;1722817;82;21056;-76
2022/04/16 11:50:07;;;;;;;3.08;2.25;;;;;;;14.78;52.53;102138.59;1745381;81;21084;-83
2022/04/16 11:52:36;;;;;;;2.40;1.60;;;;;;;14.49;51.86;102132.25;1738434;81;21033;-77
2022/04/16 11:55:19;;;;;;;5.05;3.42;;;;;;;14.15;51.63;102144.96;1740368;80;21135;-85
2022/04/16 11:57:52;;;;;;;2.75;1.65;;;;;;;13.74;51.11;102157.32;1734934;80;21081;-75
2022/04/16 12:00:22;;;;;;;4.37;1.72;;;;;;;13.38;51.00;102142.75;1713157;82;20958;-71
2022/04/16 12:02:57;;;;;;;3.08;1.90;;;;;;;13.78;51.85;102142.33;1742416;81;21059;-83
2022/04/16 12:05:29;;;;;;;2.92;1.47;;;;;;;14.25;52.00;102137.25;1727186;80;21052;-75